Time;durP1;ratioP1;P1;durP2;ratioP2;P2;SDS_P1;SDS_P2;PMS_P1;PMS_P2;Temp;Humidity;BMP_temperature;BMP_pressure;BME280_temperature;BME280_humidity;BME280_pressure;Samples;Min_cycle;Max_cycle;Signal;HPM_P1;HPM_P2
2023/09/08 00:01:55;;;;;;;7.22;4.40;;;19.00;99.90;;;;;;4995009;28;20100;-41
2023/09/08 00:04:21;;;;;;;10.63;5.07;;;19.00;99.90;;;;;;4994953;28;20447;-41
2023/09/08 00:06:47;;;;;;;9.35;4.63;;;19.00;99.90;;;;;;4994603;28;20038;-42
2023/09/08 00:09:13;;;;;;;6.30;4.00;;;18.90;99.90;;;;;;4977615;28;20046;-42
2023/09/08 00:11:39;;;;;;;7.13;4.88;;;18.90;99.90;;;;;;4994970;28;20047;-41
2023/09/08 00:14:05;;;;;;;9.25;4.80;;;18.80;99.90;;;;;;5009752;28;20046;-41
2023/09/08 00:16:30;;;;;;;8.05;4.65;;;18.80;99.90;;;;;;4977616;28;20065;-42
2023/09/08 00:18:58;;;;;;;7.28;5.05;;;18.70;99.90;;;;;;4993694;28;20057;-41
2023/09/08 00:21:24;;;;;;;7.75;5.07;;;18.70;99.90;;;;;;4977479;28;20128;-42
2023/09/08 00:23:51;;;;;;;8.63;5.07;;;18.60;99.90;;;;;;4994570;28;20491;-41
2023/09/08 00:26:17;;;;;;;7.07;4.82;;;18.60;99.90;;;;;;4994829;28;20081;-41
2023/09/08 00:28:43;;;;;;;7.72;5.25;;;18.60;99.90;;;;;;4994743;28;20143;-42
2023/09/08 00:31:08;;;;;;;7.88;4.85;;;18.50;99.90;;;;;;4994550;28;20046;-42
2023/09/08 00:33:34;;;;;;;7.53;4.90;;;18.50;99.90;;;;;;4994464;28;20043;-41
2023/09/08 00:36:00;;;;;;;8.45;5.00;;;18.40;99.90;;;;;;4994318;28;20084;-42
2023/09/08 00:38:26;;;;;;;7.90;4.70;;;18.40;99.90;;;;;;4994449;28;20072;-42
2023/09/08 00:40:52;;;;;;;7.57;5.13;;;18.40;99.90;;;;;;4994354;28;20562;-42
2023/09/08 00:43:18;;;;;;;7.68;4.93;;;18.30;99.90;;;;;;4994289;28;20058;-41
2023/09/08 00:45:45;;;;;;;8.75;5.00;;;18.30;99.90;;;;;;4994207;28;20089;-41
2023/09/08 00:48:11;;;;;;;8.27;5.03;;;18.30;99.90;;;;;;4973509;28;20055;-41
2023/09/08 00:50:37;;;;;;;7.60;4.72;;;18.30;99.90;;;;;;4974725;28;20411;-42
2023/09/08 00:53:07;;;;;;;9.15;5.55;;;18.30;99.90;;;;;;4973349;28;20455;-41
2023/09/08 00:55:33;;;;;;;8.18;5.47;;;18.20;99.90;;;;;;4975115;28;20055;-41
2023/09/08 00:57:59;;;;;;;7.72;4.90;;;18.20;99.90;;;;;;4974710;28;20130;-41
2023/09/08 01:00:26;;;;;;;7.65;4.90;;;18.20;99.90;;;;;;4974694;28;20101;-41
2023/09/08 01:02:51;;;;;;;7.70;5.25;;;18.20;99.90;;;;;;4974568;28;20047;-41
2023/09/08 01:05:18;;;;;;;7.88;4.88;;;18.10;99.90;;;;;;4974565;28;20054;-42
2023/09/08 01:07:46;;;;;;;8.30;4.68;;;18.10;99.90;;;;;;4976665;28;20089;-41
2023/09/08 01:10:12;;;;;;;7.65;4.88;;;18.10;99.90;;;;;;4978652;28;20053;-41
2023/09/08 01:12:38;;;;;;;8.90;5.22;;;18.00;99.90;;;;;;4977864;28;20408;-42
2023/09/08 01:15:05;;;;;;;7.00;5.03;;;18.00;99.90;;;;;;4978752;28;20523;-41
2023/09/08 01:17:30;;;;;;;;;;;18.00;99.90;;;;;;4978905;28;20046;-41
2023/09/08 01:20:01;;;;;;;7.68;4.97;;;18.00;99.90;;;;;;4977293;28;20295;-43
2023/09/08 01:22:35;;;;;;;7.82;5.22;;;17.90;99.90;;;;;;4978927;28;20047;-42
2023/09/08 01:25:23;;;;;;;7.63;4.82;;;17.90;99.90;;;;;;4978497;28;20055;-42
2023/09/08 01:27:54;;;;;;;8.55;5.38;;;17.90;99.90;;;;;;4977188;28;20062;-41
2023/09/08 01:30:22;;;;;;;7.75;5.15;;;17.80;99.90;;;;;;4978063;28;20069;-41
2023/09/08 01:32:49;;;;;;;7.72;5.05;;;17.80;99.90;;;;;;4978317;28;20133;-41
2023/09/08 01:35:15;;;;;;;10.57;5.38;;;17.80;99.90;;;;;;4978253;28;20106;-41
2023/09/08 01:37:45;;;;;;;7.85;5.50;;;17.70;99.90;;;;;;4978208;28;20047;-41
2023/09/08 01:40:11;;;;;;;9.32;5.53;;;17.70;99.90;;;;;;4978253;28;20051;-41
2023/09/08 01:42:38;;;;;;;8.85;5.47;;;17.70;99.90;;;;;;4976839;28;20089;-41
2023/09/08 01:45:04;;;;;;;9.57;5.38;;;17.70;99.90;;;;;;4977926;28;20051;-41
2023/09/08 01:47:30;;;;;;;7.90;5.28;;;17.60;99.90;;;;;;4978191;28;20130;-41
2023/09/08 01:49:56;;;;;;;9.18;5.25;;;17.60;99.90;;;;;;4996761;28;20161;-41
2023/09/08 01:52:22;;;;;;;8.90;5.53;;;17.50;99.90;;;;;;4997392;28;20101;-42
2023/09/08 01:54:47;;;;;;;8.73;5.63;;;17.50;99.90;;;;;;4997565;28;20081;-41
2023/09/08 01:57:13;;;;;;;10.05;6.65;;;17.60;99.90;;;;;;4997272;28;20057;-41
2023/09/08 01:59:39;;;;;;;9.27;5.70;;;17.60;99.90;;;;;;4997133;28;20591;-42
2023/09/08 02:02:06;;;;;;;7.90;4.88;;;17.60;99.90;;;;;;4997570;28;20403;-41
2023/09/08 02:04:31;;;;;;;;;;;17.50;99.90;;;;;;4997621;28;20133;-41
2023/09/08 02:06:58;;;;;;;8.20;5.55;;;17.50;99.90;;;;;;4996975;28;20013;-41
2023/09/08 02:09:34;;;;;;;9.73;5.50;;;17.50;99.90;;;;;;4980158;28;20058;-41
2023/09/08 02:12:00;;;;;;;9.68;5.18;;;17.50;99.90;;;;;;4996847;28;20055;-41
2023/09/08 02:14:27;;;;;;;8.93;5.43;;;17.40;99.90;;;;;;4996779;28;20144;-42
2023/09/08 02:16:53;;;;;;;9.02;5.40;;;17.50;99.90;;;;;;4996946;28;20103;-41
2023/09/08 02:19:19;;;;;;;8.32;5.43;;;17.40;99.90;;;;;;4995591;28;20385;-42
2023/09/08 02:21:45;;;;;;;9.25;5.22;;;17.40;99.90;;;;;;4996715;28;20076;-41
2023/09/08 02:24:10;;;;;;;8.70;5.53;;;17.40;99.90;;;;;;4996762;28;20129;-41
2023/09/08 02:26:36;;;;;;;8.77;4.82;;;17.40;99.90;;;;;;4996701;28;20045;-42
2023/09/08 02:29:01;;;;;;;9.43;5.65;;;17.40;99.90;;;;;;4996525;28;20046;-42
2023/09/08 02:31:28;;;;;;;10.02;5.95;;;17.40;99.90;;;;;;4996689;28;20050;-43
2023/09/08 02:33:53;;;;;;;7.95;5.68;;;17.40;99.90;;;;;;4996586;28;20046;-44
2023/09/08 02:36:25;;;;;;;8.40;5.35;;;17.40;99.90;;;;;;4996608;28;20057;-41
2023/09/08 02:38:51;;;;;;;8.02;5.15;;;17.40;99.90;;;;;;4996356;28;20048;-41
2023/09/08 02:41:17;;;;;;;8.40;5.53;;;17.30;99.90;;;;;;5011466;28;20085;-41
2023/09/08 02:43:43;;;;;;;9.32;5.85;;;17.30;99.90;;;;;;4996493;28;20089;-41
2023/09/08 02:46:09;;;;;;;9.25;5.60;;;17.30;99.90;;;;;;4996475;28;20046;-42
2023/09/08 02:48:35;;;;;;;7.90;4.97;;;17.30;99.90;;;;;;4975301;28;20055;-42
2023/09/08 02:51:01;;;;;;;9.45;5.63;;;17.30;99.90;;;;;;4976935;28;20059;-42
2023/09/08 02:53:28;;;;;;;8.18;5.38;;;17.30;99.90;;;;;;5008619;28;20488;-42
2023/09/08 02:55:55;;;;;;;9.63;5.72;;;17.30;99.90;;;;;;4976627;28;20113;-42
2023/09/08 02:58:21;;;;;;;9.02;5.72;;;17.20;99.90;;;;;;4976796;28;20054;-42
2023/09/08 03:00:47;;;;;;;9.68;5.57;;;17.20;99.90;;;;;;4977113;28;20051;-43
2023/09/08 03:03:12;;;;;;;9.55;5.63;;;17.20;99.90;;;;;;4977149;28;20086;-41
2023/09/08 03:05:38;;;;;;;8.50;5.82;;;17.20;99.90;;;;;;4976550;28;20396;-41
2023/09/08 03:08:05;;;;;;;8.75;5.45;;;17.10;99.90;;;;;;4976478;28;20042;-41
2023/09/08 03:10:33;;;;;;;9.80;5.95;;;17.10;99.90;;;;;;4976409;28;20400;-41
2023/09/08 03:13:00;;;;;;;9.57;6.28;;;17.10;99.90;;;;;;4975493;28;20491;-42
2023/09/08 03:15:27;;;;;;;;;;;17.10;99.90;;;;;;4976832;28;20376;-41
2023/09/08 03:17:54;;;;;;;9.77;6.28;;;17.00;99.90;;;;;;4976340;28;19933;-41
2023/09/08 03:20:20;;;;;;;8.30;5.60;;;17.00;99.90;;;;;;4976306;28;20046;-41
2023/09/08 03:22:46;;;;;;;8.85;5.72;;;17.00;99.90;;;;;;4959139;28;20054;-41
2023/09/08 03:25:14;;;;;;;9.18;5.97;;;17.00;99.90;;;;;;4974913;28;20043;-41
2023/09/08 03:27:40;;;;;;;9.48;6.18;;;17.00;99.90;;;;;;4976188;28;20047;-41
2023/09/08 03:30:07;;;;;;;9.13;5.85;;;16.90;99.90;;;;;;4974716;28;20049;-41
2023/09/08 03:32:33;;;;;;;8.07;5.57;;;16.90;99.90;;;;;;4976406;28;20046;-41
2023/09/08 03:34:58;;;;;;;9.85;6.25;;;16.90;99.90;;;;;;4975209;28;20047;-41
2023/09/08 03:37:26;;;;;;;10.55;6.28;;;16.80;99.90;;;;;;4975188;28;20046;-41
2023/09/08 03:39:52;;;;;;;9.05;5.47;;;16.80;99.90;;;;;;4975740;28;20047;-41
2023/09/08 03:42:18;;;;;;;10.20;6.15;;;16.80;99.90;;;;;;4975712;28;20381;-41
2023/09/08 03:44:43;;;;;;;9.35;6.40;;;16.80;99.90;;;;;;4974830;28;20057;-41
2023/09/08 03:47:09;;;;;;;9.35;5.95;;;16.80;99.90;;;;;;4975736;28;20093;-41
2023/09/08 03:49:35;;;;;;;9.85;6.20;;;16.80;99.90;;;;;;4989280;28;20086;-41
2023/09/08 03:52:01;;;;;;;9.93;6.43;;;16.70;99.90;;;;;;4995105;28;20554;-41
2023/09/08 03:54:26;;;;;;;8.63;5.97;;;16.70;99.90;;;;;;5010431;28;20050;-41
2023/09/08 03:56:52;;;;;;;10.38;5.97;;;16.70;99.90;;;;;;4995095;28;20042;-41
2023/09/08 03:59:18;;;;;;;9.87;5.90;;;16.70;99.90;;;;;;4995073;28;20042;-41
2023/09/08 04:01:43;;;;;;;10.10;6.72;;;16.70;99.90;;;;;;4995006;28;20304;-40
2023/09/08 04:04:09;;;;;;;9.25;5.95;;;16.70;99.90;;;;;;4995034;28;20475;-41
2023/09/08 04:06:34;;;;;;;9.02;5.65;;;16.70;99.90;;;;;;4994760;28;20369;-41
2023/09/08 04:09:00;;;;;;;10.63;5.75;;;16.70;99.90;;;;;;4994705;28;20491;-41
2023/09/08 04:11:26;;;;;;;9.93;6.15;;;16.70;99.90;;;;;;4995131;28;20392;-41
2023/09/08 04:13:52;;;;;;;8.77;5.53;;;16.60;99.90;;;;;;4994682;28;20046;-41
2023/09/08 04:16:18;;;;;;;10.15;6.35;;;16.60;99.90;;;;;;4994669;28;20130;-41
2023/09/08 04:18:44;;;;;;;10.43;6.30;;;16.60;99.90;;;;;;4994568;28;20380;-41
2023/09/08 04:21:10;;;;;;;9.48;6.40;;;16.60;99.90;;;;;;4994671;28;20054;-41
2023/09/08 04:23:36;;;;;;;9.88;6.45;;;16.50;99.90;;;;;;4994479;28;20043;-41
2023/09/08 04:26:02;;;;;;;11.75;6.25;;;16.50;99.90;;;;;;4994815;28;20050;-41
2023/09/08 04:28:27;;;;;;;9.75;6.35;;;16.50;99.90;;;;;;4994429;28;20049;-40
2023/09/08 04:30:53;;;;;;;9.75;6.22;;;16.50;99.90;;;;;;4994366;28;20427;-41
2023/09/08 04:33:19;;;;;;;10.68;6.50;;;16.40;99.90;;;;;;4994459;28;20089;-41
2023/09/08 04:35:45;;;;;;;11.30;6.15;;;16.40;99.90;;;;;;4994371;28;20506;-41
2023/09/08 04:38:11;;;;;;;8.27;5.22;;;16.40;99.90;;;;;;4994256;28;20050;-41
2023/09/08 04:40:40;;;;;;;11.30;7.00;;;16.40;99.90;;;;;;4995075;28;20368;-41
2023/09/08 04:43:05;;;;;;;9.48;6.18;;;16.40;99.90;;;;;;4993829;28;20050;-41
2023/09/08 04:45:31;;;;;;;9.73;6.43;;;16.40;99.90;;;;;;4994323;28;20133;-41
2023/09/08 04:47:56;;;;;;;10.57;6.05;;;16.30;99.90;;;;;;4993954;28;20133;-41
2023/09/08 04:50:22;;;;;;;9.63;6.45;;;16.30;99.90;;;;;;4994230;28;20054;-41
2023/09/08 04:52:48;;;;;;;10.48;6.20;;;16.20;99.90;;;;;;4994185;28;20054;-41
2023/09/08 04:55:13;;;;;;;10.23;6.40;;;16.20;99.90;;;;;;4994473;28;20395;-41
2023/09/08 04:57:39;;;;;;;9.82;6.22;;;16.10;99.90;;;;;;4994198;28;20125;-40
2023/09/08 05:00:06;;;;;;;9.27;6.00;;;16.10;99.90;;;;;;4994403;28;20050;-40
2023/09/08 05:02:32;;;;;;;11.00;6.57;;;16.20;99.90;;;;;;4994065;28;20050;-41
2023/09/08 05:04:57;;;;;;;9.70;6.28;;;16.10;99.90;;;;;;4994171;28;20044;-41
2023/09/08 05:07:23;;;;;;;10.35;6.60;;;16.10;99.90;;;;;;4976564;28;20121;-41
2023/09/08 05:09:49;;;;;;;9.80;6.28;;;16.10;99.90;;;;;;4994123;28;20085;-41
2023/09/08 05:12:15;;;;;;;11.07;6.57;;;16.10;99.90;;;;;;4994115;28;20049;-41
2023/09/08 05:14:41;;;;;;;10.45;6.47;;;16.00;99.90;;;;;;4994143;28;20073;-40
2023/09/08 05:17:06;;;;;;;10.10;6.38;;;16.00;99.90;;;;;;4993886;28;20483;-40
2023/09/08 05:19:32;;;;;;;11.82;6.72;;;16.00;99.90;;;;;;4993897;28;20046;-41
2023/09/08 05:21:58;;;;;;;9.35;6.70;;;16.00;99.90;;;;;;4993739;28;20523;-41
2023/09/08 05:24:25;;;;;;;11.63;7.05;;;16.00;99.90;;;;;;4993636;28;20476;-40
2023/09/08 05:26:51;;;;;;;10.95;6.43;;;16.10;99.90;;;;;;4993828;28;20431;-41
2023/09/08 05:29:17;;;;;;;12.65;7.07;;;16.10;99.90;;;;;;4976685;28;20142;-41
2023/09/08 05:31:43;;;;;;;11.75;7.40;;;16.10;99.90;;;;;;4993897;28;20042;-41
2023/09/08 05:34:08;;;;;;;11.77;6.57;;;16.10;99.90;;;;;;4993831;28;20058;-41
2023/09/08 05:36:36;;;;;;;10.00;7.20;;;16.10;99.90;;;;;;4993607;28;20089;-41
2023/09/08 05:39:02;;;;;;;11.00;6.70;;;16.00;99.90;;;;;;4993897;28;20125;-41
2023/09/08 05:41:28;;;;;;;12.23;7.18;;;16.10;99.90;;;;;;4993895;28;20150;-41
2023/09/08 05:43:54;;;;;;;10.63;6.68;;;16.10;99.90;;;;;;4993728;28;20046;-41
2023/09/08 05:46:20;;;;;;;12.40;6.97;;;16.20;99.90;;;;;;4976458;28;20052;-41
2023/09/08 05:48:47;;;;;;;11.70;7.22;;;16.20;99.90;;;;;;5005668;28;20078;-41
2023/09/08 05:51:14;;;;;;;10.73;6.80;;;16.20;99.90;;;;;;4974238;28;20105;-41
2023/09/08 05:53:40;;;;;;;11.77;6.55;;;16.20;99.90;;;;;;4974816;28;20046;-40
2023/09/08 05:56:06;;;;;;;10.35;6.85;;;16.20;99.90;;;;;;4976972;28;20535;-40
2023/09/08 05:58:33;;;;;;;11.52;7.22;;;16.30;99.90;;;;;;4976951;28;20480;-40
2023/09/08 06:01:02;;;;;;;11.63;6.47;;;16.30;99.90;;;;;;4977825;28;20105;-40
2023/09/08 06:03:28;;;;;;;11.57;7.30;;;16.30;99.90;;;;;;4977663;28;20520;-41
2023/09/08 06:05:55;;;;;;;12.93;7.13;;;16.40;99.90;;;;;;4977567;28;20043;-41
2023/09/08 06:08:21;;;;;;;10.00;6.32;;;16.40;99.90;;;;;;4977623;28;20047;-40
2023/09/08 06:10:46;;;;;;;10.30;6.95;;;16.50;99.90;;;;;;4977638;28;20093;-41
2023/09/08 06:13:12;;;;;;;10.27;7.05;;;16.50;99.90;;;;;;4977639;28;20054;-40
2023/09/08 06:15:38;;;;;;;10.20;6.90;;;16.60;99.90;;;;;;4977545;28;20480;-41
2023/09/08 06:18:04;;;;;;;11.05;7.07;;;16.70;99.90;;;;;;4977339;28;20049;-41
2023/09/08 06:20:29;;;;;;;12.45;7.07;;;16.70;99.90;;;;;;4977366;28;20492;-41
2023/09/08 06:22:55;;;;;;;10.15;6.80;;;16.80;99.90;;;;;;4977377;28;20049;-41
2023/09/08 06:25:21;;;;;;;11.18;6.82;;;16.90;99.90;;;;;;4977373;28;20050;-40
2023/09/08 06:27:47;;;;;;;10.88;7.00;;;16.90;99.90;;;;;;4976122;28;20045;-40
2023/09/08 06:30:16;;;;;;;10.63;6.85;;;17.10;99.90;;;;;;4977266;28;20047;-40
2023/09/08 06:32:42;;;;;;;10.65;6.93;;;17.20;99.90;;;;;;4977312;28;20062;-42
2023/09/08 06:35:08;;;;;;;9.55;6.95;;;17.30;99.90;;;;;;4975969;28;20046;-42
2023/09/08 06:37:40;;;;;;;10.65;6.93;;;17.40;99.90;;;;;;4977139;28;20051;-40
2023/09/08 06:40:06;;;;;;;11.50;7.38;;;17.50;99.90;;;;;;4977060;28;20047;-40
2023/09/08 06:42:32;;;;;;;;;;;17.60;99.90;;;;;;4977798;28;20042;-41
2023/09/08 06:44:59;;;;;;;10.15;6.80;;;17.70;99.90;;;;;;4977259;28;19929;-40
2023/09/08 06:47:24;;;;;;;12.30;6.57;;;17.80;99.90;;;;;;4976526;28;20051;-41
2023/09/08 06:49:50;;;;;;;10.48;6.40;;;17.90;99.90;;;;;;4990441;28;20064;-41
2023/09/08 06:52:17;;;;;;;10.88;6.80;;;18.00;99.90;;;;;;4996643;28;20061;-40
2023/09/08 06:54:45;;;;;;;10.75;7.07;;;18.20;99.90;;;;;;5011385;28;20141;-41
2023/09/08 06:57:12;;;;;;;11.48;7.22;;;18.30;99.90;;;;;;4996207;28;20046;-41
2023/09/08 06:59:37;;;;;;;12.15;6.72;;;18.40;99.90;;;;;;4996179;28;20451;-40
2023/09/08 07:02:04;;;;;;;11.38;6.53;;;18.40;99.90;;;;;;4996144;28;20050;-40
2023/09/08 07:04:30;;;;;;;;;;;18.50;99.90;;;;;;4978920;28;20125;-40
2023/09/08 07:06:55;;;;;;;11.35;7.00;;;18.50;99.90;;;;;;4995864;28;20430;-40
2023/09/08 07:09:21;;;;;;;11.85;7.65;;;18.60;99.90;;;;;;4995960;28;20042;-40
2023/09/08 07:11:47;;;;;;;9.68;6.63;;;18.70;99.90;;;;;;4995881;28;20068;-40
2023/09/08 07:14:13;;;;;;;11.40;7.57;;;19.00;99.90;;;;;;4995880;28;20070;-41
2023/09/08 07:16:38;;;;;;;10.52;6.95;;;19.30;99.90;;;;;;5010883;28;20050;-40
2023/09/08 07:19:04;;;;;;;12.13;7.13;;;19.60;99.90;;;;;;4995875;28;20104;-40
2023/09/08 07:21:30;;;;;;;11.32;7.00;;;19.60;99.90;;;;;;4995789;28;20053;-40
2023/09/08 07:23:56;;;;;;;10.77;7.18;;;19.60;99.90;;;;;;4995682;28;20046;-41
2023/09/08 07:26:21;;;;;;;10.57;6.78;;;19.60;99.90;;;;;;4996048;28;20043;-41
2023/09/08 07:28:48;;;;;;;10.23;6.40;;;19.50;99.90;;;;;;4995529;28;20085;-41
2023/09/08 07:31:14;;;;;;;10.00;6.45;;;19.50;99.90;;;;;;4995412;28;20495;-41
2023/09/08 07:33:40;;;;;;;10.82;6.95;;;19.60;99.90;;;;;;4995567;28;20050;-41
2023/09/08 07:36:07;;;;;;;10.02;6.55;;;19.50;99.90;;;;;;4978204;28;20535;-40
2023/09/08 07:38:33;;;;;;;11.80;6.38;;;19.60;99.90;;;;;;4995582;28;20129;-41
2023/09/08 07:41:00;;;;;;;9.80;6.30;;;19.70;99.90;;;;;;4978071;28;20162;-41
2023/09/08 07:43:26;;;;;;;9.90;6.47;;;19.80;99.90;;;;;;4995326;28;20380;-41
2023/09/08 07:45:52;;;;;;;8.52;5.75;;;19.80;99.90;;;;;;4995123;28;20049;-41
2023/09/08 07:48:18;;;;;;;10.27;6.40;;;19.80;99.90;;;;;;4977635;28;20042;-41
2023/09/08 07:50:43;;;;;;;9.35;6.07;;;19.80;99.90;;;;;;5010441;28;20050;-41
2023/09/08 07:53:09;;;;;;;10.77;6.57;;;19.80;99.90;;;;;;4995222;28;20550;-41
2023/09/08 07:55:35;;;;;;;12.25;6.68;;;19.80;99.90;;;;;;4995342;28;20049;-41
2023/09/08 07:58:02;;;;;;;10.35;6.20;;;19.80;99.90;;;;;;4995132;28;20534;-41
2023/09/08 08:00:28;;;;;;;7.60;4.72;;;19.80;99.90;;;;;;4994960;28;20050;-41
2023/09/08 08:02:55;;;;;;;7.68;5.60;;;19.90;99.90;;;;;;4994984;28;20053;-41
2023/09/08 08:05:21;;;;;;;7.68;4.60;;;20.00;99.90;;;;;;4994995;28;20056;-41
2023/09/08 08:07:47;;;;;;;8.48;4.70;;;20.00;99.90;;;;;;4995019;28;20125;-40
2023/09/08 08:10:13;;;;;;;9.32;4.78;;;20.10;99.90;;;;;;4994725;28;20127;-41
2023/09/08 08:12:42;;;;;;;9.60;4.65;;;20.20;99.90;;;;;;4994741;28;20050;-41
2023/09/08 08:15:12;;;;;;;8.38;4.90;;;20.20;99.90;;;;;;4994507;28;20050;-41
2023/09/08 08:17:39;;;;;;;7.85;4.88;;;20.30;99.90;;;;;;4993988;28;20046;-41
2023/09/08 08:20:08;;;;;;;7.50;4.88;;;20.30;99.90;;;;;;4994722;28;20046;-41
2023/09/08 08:22:34;;;;;;;8.40;4.82;;;20.40;99.90;;;;;;4994859;28;20208;-41
2023/09/08 08:24:59;;;;;;;10.52;5.07;;;20.40;99.90;;;;;;4994659;28;20559;-41
2023/09/08 08:27:25;;;;;;;6.82;4.32;;;20.50;99.90;;;;;;4994656;28;20044;-40
2023/09/08 08:29:51;;;;;;;7.57;4.65;;;20.50;99.90;;;;;;4994294;28;20058;-41
2023/09/08 08:32:17;;;;;;;7.20;4.40;;;20.60;99.90;;;;;;4977397;28;20051;-41
2023/09/08 08:34:43;;;;;;;;;;;20.60;99.90;;;;;;4994983;28;20046;-40
2023/09/08 08:37:09;;;;;;;7.03;4.30;;;20.60;99.90;;;;;;4977340;28;20310;-41
2023/09/08 08:39:35;;;;;;;6.90;4.40;;;20.70;99.90;;;;;;4994373;28;20042;-41
2023/09/08 08:42:08;;;;;;;7.13;4.28;;;20.70;99.90;;;;;;4994278;28;20046;-41
2023/09/08 08:44:35;;;;;;;8.18;4.95;;;20.80;99.90;;;;;;4993338;28;20054;-41
2023/09/08 08:47:02;;;;;;;7.88;4.57;;;20.80;99.90;;;;;;4994290;28;20047;-41
2023/09/08 08:49:31;;;;;;;7.47;4.88;;;20.90;99.90;;;;;;4992218;28;20476;-42
2023/09/08 08:51:58;;;;;;;6.95;4.03;;;21.00;99.90;;;;;;4994053;28;20072;-41
2023/09/08 08:54:25;;;;;;;6.80;3.90;;;21.00;99.90;;;;;;4976883;28;20137;-41
2023/09/08 08:56:51;;;;;;;6.18;3.75;;;21.10;99.90;;;;;;4994110;28;20050;-41
2023/09/08 08:59:16;;;;;;;;;;;21.10;99.90;;;;;;4994864;28;20050;-41
2023/09/08 09:01:43;;;;;;;6.32;3.78;;;21.20;99.90;;;;;;4993984;28;20283;-41
2023/09/08 09:04:10;;;;;;;7.22;3.58;;;21.20;99.90;;;;;;4994184;28;20050;-41
2023/09/08 09:06:36;;;;;;;7.47;3.70;;;21.30;99.90;;;;;;4994050;28;20050;-41
2023/09/08 09:09:04;;;;;;;;;;;21.40;99.90;;;;;;4994316;28;20500;-41
2023/09/08 09:11:31;;;;;;;5.38;3.40;;;21.40;99.90;;;;;;4993909;28;19921;-41
2023/09/08 09:13:57;;;;;;;6.70;3.65;;;21.50;99.90;;;;;;4994125;28;20058;-42
2023/09/08 09:16:23;;;;;;;9.32;4.00;;;21.60;99.90;;;;;;4994131;28;20054;-42
2023/09/08 09:18:59;;;;;;;5.85;3.70;;;21.60;99.90;;;;;;4994087;28;20185;-41
2023/09/08 09:21:43;;;;;;;6.40;3.50;;;21.70;99.90;;;;;;4993885;28;20054;-41
2023/09/08 09:24:17;;;;;;;6.00;3.50;;;21.70;99.90;;;;;;4993803;28;20054;-41
2023/09/08 09:26:43;;;;;;;5.95;3.40;;;21.80;99.90;;;;;;4993966;28;20598;-42
2023/09/08 09:29:15;;;;;;;5.55;3.53;;;21.90;99.90;;;;;;4979646;28;20057;-41
2023/09/08 09:32:05;;;;;;;4.95;3.22;;;22.00;99.90;;;;;;4997748;28;20085;-41
2023/09/08 09:34:32;;;;;;;5.72;3.33;;;22.00;99.90;;;;;;4989016;28;20141;-41
2023/09/08 09:36:58;;;;;;;4.93;2.83;;;22.10;99.90;;;;;;4998088;28;20038;-41
2023/09/08 09:39:25;;;;;;;6.28;3.30;;;22.20;99.90;;;;;;4980333;28;20137;-42
2023/09/08 09:41:55;;;;;;;5.65;3.03;;;22.20;99.90;;;;;;4997490;28;20499;-41
2023/09/08 09:44:21;;;;;;;6.30;3.30;;;22.30;99.90;;;;;;4997654;28;20050;-41
2023/09/08 09:46:48;;;;;;;5.88;3.28;;;22.40;99.90;;;;;;4997267;28;20141;-41
2023/09/08 09:49:19;;;;;;;5.57;3.40;;;22.60;99.90;;;;;;4997273;28;20396;-42
2023/09/08 09:51:47;;;;;;;5.85;3.13;;;22.70;99.90;;;;;;4997370;28;20077;-42
2023/09/08 09:54:14;;;;;;;6.57;3.53;;;22.80;99.90;;;;;;4997427;28;20056;-41
2023/09/08 09:56:40;;;;;;;5.40;2.95;;;22.90;99.90;;;;;;4997628;28;20121;-42
2023/09/08 09:59:13;;;;;;;5.93;3.28;;;23.00;99.90;;;;;;4997295;28;20137;-42
2023/09/08 10:01:42;;;;;;;5.13;2.45;;;23.10;99.90;;;;;;5012411;28;20125;-42
2023/09/08 10:04:08;;;;;;;6.45;3.15;;;23.20;99.90;;;;;;4997324;28;20097;-42
2023/09/08 10:06:36;;;;;;;5.68;3.17;;;23.40;99.90;;;;;;4997246;28;20515;-41
2023/09/08 10:09:08;;;;;;;5.60;3.22;;;23.50;99.90;;;;;;4997214;28;20050;-42
2023/09/08 10:11:39;;;;;;;4.80;2.83;;;23.60;99.90;;;;;;4997218;28;20057;-42
2023/09/08 10:14:11;;;;;;;5.93;3.40;;;23.70;99.90;;;;;;4979909;28;20136;-43
2023/09/08 10:16:39;;;;;;;5.95;3.03;;;23.80;99.90;;;;;;4996787;28;20050;-42
2023/09/08 10:19:08;;;;;;;5.78;3.05;;;23.90;99.90;;;;;;4996822;28;20606;-42
2023/09/08 10:21:40;;;;;;;5.55;2.80;;;24.10;99.90;;;;;;4996867;28;20055;-42
2023/09/08 10:24:16;;;;;;;5.25;2.88;;;24.20;99.90;;;;;;4996880;28;20057;-43
2023/09/08 10:26:46;;;;;;;5.47;3.13;;;24.30;99.90;;;;;;4996640;28;20129;-42
2023/09/08 10:29:13;;;;;;;6.20;2.92;;;24.50;99.90;;;;;;4997221;28;20053;-42
2023/09/08 10:31:39;;;;;;;6.35;2.80;;;24.60;99.90;;;;;;4996772;28;20411;-41
2023/09/08 10:34:06;;;;;;;5.90;3.40;;;24.80;99.90;;;;;;4996693;28;20050;-41
2023/09/08 10:36:33;;;;;;;5.15;2.60;;;24.90;99.90;;;;;;4996634;28;20104;-42
2023/09/08 10:39:29;;;;;;;4.75;2.90;;;25.00;99.90;;;;;;4996306;28;20058;-42
2023/09/08 10:42:16;;;;;;;5.60;3.47;;;25.20;99.90;;;;;;4996416;28;20057;-41
2023/09/08 10:45:13;;;;;;;5.18;2.80;;;25.40;99.90;;;;;;4996710;28;20129;-42
2023/09/08 10:47:45;;;;;;;5.88;3.15;;;25.50;99.90;;;;;;4996425;28;20046;-41
2023/09/08 10:50:27;;;;;;;6.28;2.90;;;25.70;99.90;;;;;;4994453;28;20058;-42
2023/09/08 10:53:07;;;;;;;5.70;3.20;;;25.80;99.90;;;;;;4996447;28;20054;-42
2023/09/08 10:55:40;;;;;;;6.32;3.03;;;26.00;99.90;;;;;;4996136;28;20046;-41
2023/09/08 10:58:06;;;;;;;4.55;2.78;;;26.20;99.90;;;;;;4996269;28;20046;-41
2023/09/08 11:00:50;;;;;;;;;;;26.30;99.90;;;;;;4996832;28;20068;-42
2023/09/08 11:03:27;;;;;;;6.22;3.10;;;26.50;99.90;;;;;;4996148;28;20389;-41
2023/09/08 11:05:53;;;;;;;5.68;2.90;;;26.60;99.90;;;;;;4996052;28;20054;-42
2023/09/08 11:08:19;;;;;;;4.70;2.53;;;26.80;99.90;;;;;;4995816;28;20104;-42
2023/09/08 11:10:45;;;;;;;4.47;2.47;;;26.90;99.90;;;;;;4996061;28;20050;-41
2023/09/08 11:13:11;;;;;;;4.70;2.55;;;27.00;99.90;;;;;;4996139;28;20129;-41
2023/09/08 11:15:37;;;;;;;5.55;3.22;;;27.20;99.90;;;;;;4995862;28;20061;-42
2023/09/08 11:18:07;;;;;;;4.78;2.45;;;27.30;99.90;;;;;;4995831;28;20503;-41
2023/09/08 11:20:34;;;;;;;6.53;2.92;;;27.30;99.90;;;;;;4995946;28;20400;-42
2023/09/08 11:23:00;;;;;;;5.88;2.70;;;27.40;99.90;;;;;;4994443;28;20049;-43
2023/09/08 11:25:25;;;;;;;4.60;2.58;;;27.50;99.90;;;;;;4995800;28;20038;-41
2023/09/08 11:27:51;;;;;;;5.00;2.63;;;27.60;99.90;;;;;;4995629;28;20042;-42
2023/09/08 11:30:17;;;;;;;5.05;2.83;;;27.70;99.90;;;;;;4995818;28;20152;-41
2023/09/08 11:32:43;;;;;;;4.93;2.65;;;27.80;99.90;;;;;;4995602;28;20050;-42
2023/09/08 11:35:10;;;;;;;5.20;2.58;;;27.90;99.90;;;;;;4995521;28;20053;-41
2023/09/08 11:37:41;;;;;;;7.22;2.83;;;28.00;99.90;;;;;;4995213;28;20042;-41
2023/09/08 11:40:14;;;;;;;5.85;2.50;;;28.10;99.90;;;;;;4996094;28;20117;-42
2023/09/08 11:42:44;;;;;;;6.15;2.80;;;28.20;99.90;;;;;;4978674;28;20431;-41
2023/09/08 11:45:13;;;;;;;3.85;2.22;;;28.30;99.90;;;;;;4995432;28;20046;-42
2023/09/08 11:47:43;;;;;;;6.07;2.80;;;28.30;99.90;;;;;;4977898;28;20042;-41
2023/09/08 11:50:11;;;;;;;4.68;2.53;;;28.40;99.90;;;;;;4974521;28;20065;-41
2023/09/08 11:52:38;;;;;;;4.80;2.78;;;28.40;99.90;;;;;;4975367;28;20412;-41
2023/09/08 11:55:05;;;;;;;5.30;2.70;;;28.50;99.90;;;;;;4975733;28;20050;-42
2023/09/08 11:57:32;;;;;;;6.35;2.72;;;28.60;99.90;;;;;;4975685;28;20053;-41
2023/09/08 11:59:58;;;;;;;4.60;2.30;;;28.70;99.90;;;;;;4974551;28;20085;-41
2023/09/08 12:02:25;;;;;;;3.80;2.10;;;28.70;99.90;;;;;;4975620;28;20462;-42
2023/09/08 12:04:54;;;;;;;4.60;2.22;;;28.80;99.90;;;;;;4974186;28;20129;-41
2023/09/08 12:07:19;;;;;;;4.00;2.28;;;28.80;99.90;;;;;;4974661;28;20125;-42
2023/09/08 12:09:45;;;;;;;4.78;2.72;;;28.90;99.90;;;;;;4975842;28;20479;-42
2023/09/08 12:12:14;;;;;;;3.95;2.17;;;29.00;99.90;;;;;;4975518;28;20046;-42
2023/09/08 12:14:41;;;;;;;4.22;2.58;;;29.00;99.90;;;;;;4975378;28;20054;-41
2023/09/08 12:17:08;;;;;;;6.15;2.38;;;29.00;99.90;;;;;;4975356;28;20424;-42
2023/09/08 12:19:36;;;;;;;3.55;2.10;;;29.10;99.90;;;;;;4974465;28;20054;-41
2023/09/08 12:22:04;;;;;;;4.40;2.25;;;29.10;99.90;;;;;;4975597;28;20082;-41
2023/09/08 12:24:49;;;;;;;4.63;2.60;;;29.10;99.90;;;;;;4975247;28;20058;-42
2023/09/08 12:27:16;;;;;;;4.80;2.05;;;29.20;99.90;;;;;;4975196;28;20121;-41
2023/09/08 12:30:04;;;;;;;4.28;2.28;;;29.30;99.90;;;;;;4974174;28;20491;-43
2023/09/08 12:32:31;;;;;;;4.30;2.30;;;29.30;99.90;;;;;;4975287;28;20373;-42
2023/09/08 12:34:58;;;;;;;4.07;2.03;;;29.30;99.90;;;;;;4975507;28;20514;-42
2023/09/08 12:37:27;;;;;;;4.97;2.28;;;29.30;99.90;;;;;;4974980;28;20062;-42
2023/09/08 12:39:53;;;;;;;5.00;2.20;;;29.30;99.90;;;;;;4974931;28;20484;-41
2023/09/08 12:42:20;;;;;;;5.07;2.22;;;29.40;99.90;;;;;;4974840;28;20043;-41
2023/09/08 12:44:47;;;;;;;5.22;2.30;;;29.40;99.90;;;;;;4974994;28;20135;-42
2023/09/08 12:47:12;;;;;;;3.55;2.05;;;29.50;99.90;;;;;;4974893;28;20054;-42